Time;durP1;ratioP1;P1;durP2;ratioP2;P2;SDS_P1;SDS_P2;PMS_P1;PMS_P2;Temp;Humidity;BMP_temperature;BMP_pressure;BME280_temperature;BME280_humidity;BME280_pressure;Samples;Min_cycle;Max_cycle;Signal;HPM_P1;HPM_P2
2023/12/03 00:01:27;;;;;;;29.23;12.57;;;;;;;0.82;100.00;101920.25;6084943;19;20002;-73
2023/12/03 00:03:32;;;;;;;32.92;12.55;;;;;;;0.73;100.00;101920.06;6085248;19;20014;-73
2023/12/03 00:05:38;;;;;;;27.35;10.90;;;;;;;0.65;100.00;101909.59;6086697;19;20031;-73
2023/12/03 00:07:43;;;;;;;27.35;12.55;;;;;;;0.62;100.00;101916.44;6086582;19;20423;-73
2023/12/03 00:09:48;;;;;;;23.85;10.45;;;;;;;0.56;100.00;101911.16;6081965;19;20470;-73
2023/12/03 00:11:55;;;;;;;34.92;12.02;;;;;;;0.53;100.00;101914.56;6086650;19;20078;-72
2023/12/03 00:14:00;;;;;;;33.67;14.27;;;;;;;0.49;100.00;101910.16;6082268;19;20451;-71
2023/12/03 00:16:04;;;;;;;27.73;12.85;;;;;;;0.49;100.00;101911.88;6084571;19;20491;-71
2023/12/03 00:18:09;;;;;;;28.55;12.75;;;;;;;0.49;100.00;101909.31;6083742;19;20368;-72
2023/12/03 00:20:16;;;;;;;32.45;12.63;;;;;;;0.48;100.00;101920.50;6082767;19;20069;-72
2023/12/03 00:22:21;;;;;;;34.00;14.43;;;;;;;0.50;100.00;101911.03;6083599;19;20002;-71
2023/12/03 00:24:26;;;;;;;29.58;13.23;;;;;;;0.47;100.00;101917.03;6083133;19;20014;-71
2023/12/03 00:26:31;;;;;;;32.55;14.30;;;;;;;0.54;100.00;101915.44;6085240;19;20466;-72
2023/12/03 00:28:38;;;;;;;26.60;11.13;;;;;;;0.50;100.00;101922.28;6083228;19;20757;-73
2023/12/03 00:30:46;;;;;;;29.48;14.65;;;;;;;0.41;100.00;101924.69;6082930;19;20013;-72
2023/12/03 00:32:48;;;;;;;25.23;11.82;;;;;;;0.37;100.00;101923.75;6080752;19;20007;-71
2023/12/03 00:34:53;;;;;;;29.42;11.90;;;;;;;0.40;100.00;101920.34;6086846;19;20396;-72
2023/12/03 00:36:58;;;;;;;24.90;11.77;;;;;;;0.42;100.00;101914.38;6088924;19;20014;-72
2023/12/03 00:39:03;;;;;;;25.80;12.80;;;;;;;0.38;100.00;101914.28;6086709;19;20011;-73
2023/12/03 00:41:09;;;;;;;26.20;10.85;;;;;;;0.38;100.00;101920.31;6086530;19;20014;-73
2023/12/03 00:43:15;;;;;;;26.35;10.38;;;;;;;0.36;100.00;101919.41;6089816;19;20011;-72
2023/12/03 00:45:23;;;;;;;18.77;11.15;;;;;;;0.30;100.00;101924.47;6091464;19;20131;-72
2023/12/03 00:47:29;;;;;;;26.10;13.30;;;;;;;0.27;100.00;101915.81;6088787;19;20010;-73
2023/12/03 00:49:32;;;;;;;21.38;10.23;;;;;;;0.25;100.00;101920.06;6088309;19;20376;-72
2023/12/03 00:51:37;;;;;;;28.77;13.35;;;;;;;0.30;100.00;101924.47;6085298;19;20483;-74
2023/12/03 00:53:39;;;;;;;24.83;11.10;;;;;;;0.33;100.00;101929.69;6083384;19;20098;-74
2023/12/03 00:55:45;;;;;;;30.02;12.02;;;;;;;0.34;100.00;101926.28;6082241;19;20451;-72
2023/12/03 00:57:49;;;;;;;22.73;10.30;;;;;;;0.34;100.00;101934.06;6086872;19;20003;-73
2023/12/03 00:59:55;;;;;;;20.92;10.10;;;;;;;0.32;100.00;101930.56;6081014;19;20736;-72
2023/12/03 01:02:03;;;;;;;17.70;9.43;;;;;;;0.38;100.00;101932.38;6083255;19;19999;-74
2023/12/03 01:04:08;;;;;;;28.90;10.70;;;;;;;0.31;100.00;101925.34;6083280;19;20042;-72
2023/12/03 01:06:13;;;;;;;23.63;12.18;;;;;;;0.25;100.00;101922.66;6083232;19;20292;-74
2023/12/03 01:08:21;;;;;;;23.10;9.93;;;;;;;0.30;100.00;101926.19;6085740;19;20014;-74
2023/12/03 01:10:26;;;;;;;22.90;11.45;;;;;;;0.28;100.00;101927.88;6080865;19;20031;-74
2023/12/03 01:12:31;;;;;;;23.75;9.40;;;;;;;0.21;100.00;101921.69;6084138;19;20106;-74
2023/12/03 01:14:33;;;;;;;24.08;12.80;;;;;;;0.13;100.00;101924.16;6085611;19;20010;-72
2023/12/03 01:16:38;;;;;;;26.52;12.40;;;;;;;0.11;100.00;101922.38;6084438;19;20011;-73
2023/12/03 01:18:46;;;;;;;22.38;9.43;;;;;;;0.06;100.00;101924.00;6085230;19;20089;-72
2023/12/03 01:20:51;;;;;;;23.00;10.35;;;;;;;0.13;100.00;101923.25;6083681;19;20007;-73
2023/12/03 01:22:56;;;;;;;28.17;11.00;;;;;;;0.17;100.00;101928.53;6083038;19;20027;-73
2023/12/03 01:24:59;;;;;;;23.52;12.50;;;;;;;0.20;100.00;101930.31;6087498;19;20006;-72
2023/12/03 01:27:06;;;;;;;25.70;11.38;;;;;;;0.30;100.00;101936.53;6079236;19;20038;-72
2023/12/03 01:29:11;;;;;;;27.00;14.15;;;;;;;0.25;100.00;101944.19;6080498;19;20005;-72
2023/12/03 01:31:15;;;;;;;27.15;12.07;;;;;;;0.18;100.00;101942.31;6082860;19;20440;-72
2023/12/03 01:33:21;;;;;;;23.80;13.13;;;;;;;0.22;100.00;101941.56;6082301;19;20014;-72
2023/12/03 01:35:27;;;;;;;25.33;13.95;;;;;;;0.17;100.00;101938.00;6079959;19;20042;-71
2023/12/03 01:37:32;;;;;;;24.40;11.57;;;;;;;0.08;100.00;101943.88;6082558;19;20432;-72
2023/12/03 01:39:37;;;;;;;21.92;12.40;;;;;;;0.20;100.00;101943.22;6082192;19;20582;-73
2023/12/03 01:41:42;;;;;;;24.25;14.30;;;;;;;0.06;100.00;101947.25;6082354;19;20119;-73
2023/12/03 01:43:49;;;;;;;23.38;13.05;;;;;;;0.04;100.00;101944.63;6087415;19;20002;-74
2023/12/03 01:45:53;;;;;;;28.52;14.45;;;;;;;-0.02;100.00;101945.38;6091074;19;20038;-75
2023/12/03 01:48:01;;;;;;;34.15;12.65;;;;;;;0.08;100.00;101950.72;6088981;19;20002;-75
2023/12/03 01:50:09;;;;;;;21.92;12.80;;;;;;;0.05;100.00;101948.94;6085437;19;20030;-72
2023/12/03 01:52:18;;;;;;;21.35;13.80;;;;;;;0.01;100.00;101954.06;6086427;19;20471;-72
2023/12/03 01:54:23;;;;;;;31.25;14.15;;;;;;;0.21;100.00;101947.53;6087553;19;20404;-72
2023/12/03 01:56:28;;;;;;;27.42;12.52;;;;;;;0.18;100.00;101957.81;6089236;19;20011;-74
2023/12/03 01:58:30;;;;;;;26.60;13.10;;;;;;;0.15;100.00;101960.34;6087557;19;20020;-74
2023/12/03 02:00:39;;;;;;;25.13;14.27;;;;;;;0.16;100.00;101957.81;6086295;19;20062;-73
2023/12/03 02:02:44;;;;;;;25.58;14.25;;;;;;;0.15;100.00;101960.34;6084948;19;20408;-75
2023/12/03 02:04:49;;;;;;;25.48;14.20;;;;;;;0.07;100.00;101962.78;6083338;19;20508;-73
2023/12/03 02:06:54;;;;;;;26.15;16.10;;;;;;;0.04;100.00;101964.44;6083106;19;20013;-71
2023/12/03 02:09:02;;;;;;;25.98;13.82;;;;;;;0.04;100.00;101965.31;6081820;19;20002;-71
2023/12/03 02:11:06;;;;;;;28.67;13.98;;;;;;;-0.01;100.00;101954.00;6079551;19;20034;-75
2023/12/03 02:13:12;;;;;;;22.92;15.82;;;;;;;-0.03;100.00;101968.59;6079321;19;20071;-72
2023/12/03 02:15:19;;;;;;;30.98;14.30;;;;;;;-0.06;100.00;101961.66;6079385;19;20010;-72
2023/12/03 02:17:24;;;;;;;26.80;13.65;;;;;;;-0.11;100.00;101959.81;6080755;19;20100;-74
2023/12/03 02:19:29;;;;;;;22.27;13.45;;;;;;;-0.14;100.00;101960.63;6080318;19;20006;-73
2023/12/03 02:21:34;;;;;;;28.30;15.02;;;;;;;-0.17;100.00;101959.69;6079510;19;20034;-72
2023/12/03 02:23:46;;;;;;;19.13;12.77;;;;;;;-0.17;100.00;101960.56;6081678;19;20025;-73
2023/12/03 02:25:51;;;;;;;30.58;15.25;;;;;;;-0.12;100.00;101963.25;6081048;19;20502;-73
2023/12/03 02:27:56;;;;;;;26.92;16.67;;;;;;;-0.13;100.00;101961.47;6080731;19;20013;-72
2023/12/03 02:30:00;;;;;;;34.97;14.93;;;;;;;-0.22;100.00;101952.69;6079484;19;20070;-73
2023/12/03 02:32:06;;;;;;;25.77;14.65;;;;;;;-0.22;100.00;101965.63;6077894;19;20007;-72
2023/12/03 02:34:13;;;;;;;28.17;16.13;;;;;;;-0.18;100.00;101966.56;6073171;19;20487;-72
2023/12/03 02:36:21;;;;;;;27.67;14.73;;;;;;;-0.21;100.00;101969.09;6078071;19;20010;-72
2023/12/03 02:38:26;;;;;;;30.70;15.65;;;;;;;-0.26;100.00;101956.06;6079071;19;20010;-73
2023/12/03 02:40:32;;;;;;;24.65;14.32;;;;;;;-0.25;100.00;101960.38;6079510;19;20010;-73
2023/12/03 02:42:39;;;;;;;27.90;14.57;;;;;;;-0.28;100.00;101968.06;6078801;19;20085;-72
2023/12/03 02:44:43;;;;;;;23.85;14.48;;;;;;;-0.32;100.00;101966.25;6080917;19;20090;-72
2023/12/03 02:46:48;;;;;;;29.13;15.65;;;;;;;-0.33;100.00;101971.41;6082096;19;20062;-73
2023/12/03 02:48:53;;;;;;;24.88;15.27;;;;;;;-0.36;100.00;101968.75;6078631;19;20043;-72
2023/12/03 02:50:58;;;;;;;27.30;15.05;;;;;;;-0.40;100.00;101970.38;6079958;19;20017;-73
2023/12/03 02:53:05;;;;;;;25.70;13.25;;;;;;;-0.42;100.00;101964.31;6077311;19;20625;-72
2023/12/03 02:55:12;;;;;;;25.73;14.90;;;;;;;-0.45;100.00;101965.13;6074548;19;20015;-72
2023/12/03 02:57:20;;;;;;;25.92;13.70;;;;;;;-0.42;100.00;101960.84;6077632;19;20002;-72
2023/12/03 02:59:26;;;;;;;26.40;13.07;;;;;;;-0.46;100.00;101960.78;6075872;19;20481;-73
2023/12/03 03:01:31;;;;;;;24.92;14.93;;;;;;;-0.43;100.00;101961.69;6074618;19;20111;-74
2023/12/03 03:03:38;;;;;;;19.35;11.43;;;;;;;-0.48;100.00;101959.00;6080502;19;20412;-74
2023/12/03 03:05:43;;;;;;;21.88;12.65;;;;;;;-0.39;100.00;101963.53;6079261;19;20002;-74
2023/12/03 03:07:49;;;;;;;24.42;13.05;;;;;;;-0.39;100.00;101964.38;6081002;19;20405;-71
2023/12/03 03:09:54;;;;;;;44.63;16.45;;;;;;;-0.45;100.00;101965.13;6079130;19;20006;-71
2023/12/03 03:11:59;;;;;;;26.83;14.15;;;;;;;-0.46;100.00;101957.34;6080636;19;20387;-72
2023/12/03 03:14:07;;;;;;;22.67;13.23;;;;;;;-0.42;100.00;101958.25;6081043;19;20324;-72
2023/12/03 03:16:14;;;;;;;24.92;15.07;;;;;;;-0.39;100.00;101959.22;6079055;19;20010;-72
2023/12/03 03:18:19;;;;;;;36.38;16.42;;;;;;;-0.47;100.00;101956.47;6079465;19;20496;-73
2023/12/03 03:20:26;;;;;;;28.92;14.07;;;;;;;-0.48;100.00;101949.53;6075949;19;20424;-71
2023/12/03 03:22:29;;;;;;;29.52;15.57;;;;;;;-0.55;100.00;101949.41;6076976;19;20010;-72
2023/12/03 03:24:36;;;;;;;25.38;11.95;;;;;;;-0.56;100.00;101953.66;6082951;19;20578;-71
2023/12/03 03:26:39;;;;;;;25.85;13.85;;;;;;;-0.50;100.00;101953.81;6081588;19;20035;-72
2023/12/03 03:28:45;;;;;;;34.25;17.80;;;;;;;-0.57;100.00;101954.50;6082203;19;20010;-72
2023/12/03 03:30:53;;;;;;;27.50;15.88;;;;;;;-0.52;100.00;101954.63;6080489;19;20316;-72
2023/12/03 03:33:00;;;;;;;26.77;13.10;;;;;;;-0.60;100.00;101954.44;6083136;19;20082;-73
2023/12/03 03:35:05;;;;;;;22.60;14.25;;;;;;;-0.58;100.00;101952.78;6080801;19;20078;-72
2023/12/03 03:37:10;;;;;;;24.58;13.10;;;;;;;-0.58;100.00;101955.34;6079750;19;20015;-73
2023/12/03 03:39:15;;;;;;;30.65;16.50;;;;;;;-0.65;100.00;101956.03;6085384;19;20014;-73
2023/12/03 03:41:22;;;;;;;33.58;14.80;;;;;;;-0.57;100.00;101959.66;6080510;19;20003;-72
2023/12/03 03:43:27;;;;;;;25.88;13.68;;;;;;;-0.63;100.00;101967.28;6081625;19;20014;-72
2023/12/03 03:45:32;;;;;;;24.73;13.18;;;;;;;-0.67;100.00;101961.16;6084131;19;20498;-73
2023/12/03 03:47:42;;;;;;;31.25;13.25;;;;;;;-0.66;100.00;101962.03;6086042;19;20018;-73
2023/12/03 03:49:52;;;;;;;29.98;14.43;;;;;;;-0.67;100.00;101960.28;6088791;19;20014;-75
2023/12/03 03:51:57;;;;;;;31.40;13.75;;;;;;;-0.68;100.00;101962.00;6083773;19;20016;-73
2023/12/03 03:54:03;;;;;;;35.40;15.15;;;;;;;-0.67;100.00;101968.91;6082631;19;20006;-74
2023/12/03 03:56:10;;;;;;;25.60;12.38;;;;;;;-0.62;100.00;101974.19;6084623;19;20014;-72
2023/12/03 03:58:17;;;;;;;22.52;13.70;;;;;;;-0.68;100.00;101981.78;6086557;19;20023;-73
2023/12/03 04:00:24;;;;;;;31.08;15.77;;;;;;;-0.62;100.00;101978.47;6086892;19;20014;-72
2023/12/03 04:02:29;;;;;;;30.20;14.05;;;;;;;-0.67;100.00;101978.34;6088796;19;20002;-76
2023/12/03 04:04:36;;;;;;;39.25;16.20;;;;;;;-0.70;100.00;101973.13;6089738;19;20045;-73
2023/12/03 04:06:42;;;;;;;37.80;14.73;;;;;;;-0.70;100.00;101978.28;6087634;19;20049;-73
2023/12/03 04:08:48;;;;;;;27.60;14.10;;;;;;;-0.69;100.00;101980.03;6085691;19;20541;-73
2023/12/03 04:10:53;;;;;;;30.75;15.38;;;;;;;-0.68;100.00;101971.47;6084501;19;20006;-73
2023/12/03 04:13:01;;;;;;;32.08;15.88;;;;;;;-0.76;100.00;101973.84;6086414;19;20223;-72
2023/12/03 04:15:07;;;;;;;34.35;14.07;;;;;;;-0.79;100.00;101972.88;6088602;19;20018;-72
2023/12/03 04:17:13;;;;;;;39.53;16.77;;;;;;;-0.77;100.00;101981.53;6088238;19;20010;-71
2023/12/03 04:19:18;;;;;;;30.70;12.73;;;;;;;-0.74;100.00;101985.09;6087018;19;20014;-72
2023/12/03 04:21:25;;;;;;;28.48;15.10;;;;;;;-0.70;100.00;101983.44;6086984;19;20030;-72
2023/12/03 04:23:30;;;;;;;30.98;15.30;;;;;;;-0.77;100.00;101986.72;6085511;19;20030;-72
2023/12/03 04:25:36;;;;;;;32.28;17.02;;;;;;;-0.83;100.00;101992.59;6087792;19;20010;-71
2023/12/03 04:27:41;;;;;;;38.30;14.85;;;;;;;-0.86;100.00;101982.22;6075755;19;20010;-72
2023/12/03 04:29:52;;;;;;;32.80;15.70;;;;;;;-0.83;100.00;101987.44;6084253;19;20074;-71
2023/12/03 04:31:58;;;;;;;40.15;16.55;;;;;;;-0.77;100.00;101978.97;6086221;19;20007;-71
2023/12/03 04:34:05;;;;;;;34.72;15.18;;;;;;;-0.88;100.00;101984.72;6084377;19;20046;-71
2023/12/03 04:36:11;;;;;;;26.52;15.70;;;;;;;-0.84;100.00;101977.97;6084449;19;20427;-72
2023/12/03 04:38:19;;;;;;;38.60;15.52;;;;;;;-0.80;100.00;101976.31;6086328;19;20034;-71
2023/12/03 04:40:24;;;;;;;20.70;11.98;;;;;;;-0.91;100.00;101974.34;6085419;19;20011;-71
2023/12/03 04:42:29;;;;;;;35.20;14.38;;;;;;;-0.86;100.00;101971.88;6088607;19;20006;-72
2023/12/03 04:44:34;;;;;;;30.58;13.00;;;;;;;-0.85;100.00;101973.63;6089998;19;20019;-75
2023/12/03 04:46:42;;;;;;;38.60;14.95;;;;;;;-0.86;100.00;101968.44;6088970;19;20465;-72
2023/12/03 04:48:47;;;;;;;30.95;14.70;;;;;;;-0.94;100.00;101969.13;6089098;19;20132;-72
2023/12/03 04:50:52;;;;;;;41.83;17.95;;;;;;;-0.98;100.00;101971.56;6090539;19;20002;-74
2023/12/03 04:52:58;;;;;;;25.02;13.02;;;;;;;-0.98;100.00;101972.44;6084136;19;20027;-72
2023/12/03 04:55:08;;;;;;;31.08;14.18;;;;;;;-0.93;100.00;101970.84;6086703;19;20070;-73
2023/12/03 04:57:13;;;;;;;34.25;13.32;;;;;;;-0.94;100.00;101973.41;6083604;19;20340;-72
2023/12/03 04:59:18;;;;;;;22.27;13.75;;;;;;;-0.97;100.00;101979.34;6087169;19;20014;-73
2023/12/03 05:01:23;;;;;;;34.75;13.48;;;;;;;-1.00;100.00;101981.88;6084033;19;20075;-73
2023/12/03 05:03:31;;;;;;;25.55;13.40;;;;;;;-0.97;100.00;101979.34;6082002;19;20784;-72
2023/12/03 05:05:37;;;;;;;31.65;15.00;;;;;;;-1.09;100.00;101980.75;6084939;19;20555;-73
2023/12/03 05:07:39;;;;;;;23.83;13.77;;;;;;;-1.11;100.00;101983.28;6082750;19;20666;-74
2023/12/03 05:09:44;;;;;;;25.35;12.27;;;;;;;-1.11;100.00;101975.53;6081854;19;20092;-72
2023/12/03 05:11:52;;;;;;;22.92;11.73;;;;;;;-1.01;100.00;101980.09;6083502;19;20014;-72
2023/12/03 05:13:57;;;;;;;28.52;12.68;;;;;;;-1.02;100.00;101978.38;6077857;19;20030;-74
2023/12/03 05:16:01;;;;;;;31.58;15.15;;;;;;;-0.98;100.00;101976.72;6080554;19;20082;-72
2023/12/03 05:18:08;;;;;;;45.33;20.65;;;;;;;-0.91;100.00;101979.50;6082869;19;20035;-74
2023/12/03 05:20:15;;;;;;;33.65;15.52;;;;;;;-0.92;100.00;101980.34;6081562;19;20007;-72
2023/12/03 05:22:20;;;;;;;30.83;13.60;;;;;;;-0.98;100.00;101976.72;6083932;19;20108;-74
2023/12/03 05:24:27;;;;;;;24.23;12.70;;;;;;;-0.93;100.00;101972.56;6080721;19;20485;-71
2023/12/03 05:26:33;;;;;;;30.63;16.85;;;;;;;-0.97;100.00;101981.94;6082498;19;20010;-72
2023/12/03 05:28:40;;;;;;;29.88;14.38;;;;;;;-1.02;100.00;101980.94;6081574;19;20018;-72
2023/12/03 05:30:43;;;;;;;40.88;18.30;;;;;;;-0.95;100.00;101980.28;6075783;19;20558;-73
2023/12/03 05:32:47;;;;;;;33.45;14.38;;;;;;;-1.04;100.00;101974.88;6080402;19;20245;-72
2023/12/03 05:34:58;;;;;;;39.25;16.48;;;;;;;-0.98;100.00;101981.88;6079935;19;20006;-74
2023/12/03 05:37:03;;;;;;;33.47;13.90;;;;;;;-0.97;100.00;101984.53;6079764;19;20890;-71
2023/12/03 05:39:08;;;;;;;31.40;12.60;;;;;;;-0.96;100.00;101983.66;6080434;19;20007;-75
2023/12/03 05:41:13;;;;;;;31.33;15.60;;;;;;;-1.00;100.00;101993.88;6080835;19;20680;-72
2023/12/03 05:43:23;;;;;;;33.08;15.70;;;;;;;-1.05;100.00;101986.03;6082063;19;20003;-73
2023/12/03 05:45:30;;;;;;;33.50;15.02;;;;;;;-1.09;100.00;101979.03;6080461;19;20097;-73
2023/12/03 05:47:34;;;;;;;43.72;18.25;;;;;;;-1.13;100.00;101987.56;6082836;19;20382;-72
2023/12/03 05:49:40;;;;;;;41.05;16.90;;;;;;;-1.12;100.00;101981.53;6079407;19;20427;-73
2023/12/03 05:51:43;;;;;;;42.25;17.25;;;;;;;-1.11;100.00;101997.06;6076559;19;20046;-73
2023/12/03 05:53:48;;;;;;;;;;;;;;;-1.12;100.00;101997.03;6077631;19;20086;-73
2023/12/03 05:55:57;;;;;;;34.22;14.45;;;;;;;-1.15;100.00;101997.81;6080840;19;19954;-73
2023/12/03 05:58:02;;;;;;;49.42;16.80;;;;;;;-1.13;100.00;101995.28;6081068;19;19999;-72
2023/12/03 06:00:08;;;;;;;38.08;15.10;;;;;;;-1.16;100.00;101995.19;6080371;19;20473;-72
2023/12/03 06:02:14;;;;;;;46.08;19.88;;;;;;;-1.11;100.00;101997.06;6080512;19;20006;-73
2023/12/03 06:04:23;;;;;;;38.92;17.77;;;;;;;-1.14;100.00;101996.97;6075865;19;20669;-73
2023/12/03 06:06:26;;;;;;;40.58;16.70;;;;;;;-1.15;100.00;101994.38;6080661;19;20013;-73
2023/12/03 06:08:33;;;;;;;48.47;18.17;;;;;;;-1.19;100.00;101998.56;6083201;19;20034;-73
2023/12/03 06:10:39;;;;;;;37.55;15.77;;;;;;;-1.23;100.00;101999.31;6082453;19;20485;-73
2023/12/03 06:12:44;;;;;;;35.00;14.95;;;;;;;-1.21;100.00;102004.50;6076999;19;20087;-74
2023/12/03 06:14:50;;;;;;;35.97;18.05;;;;;;;-1.26;100.00;102000.94;6080018;19;20427;-74
2023/12/03 06:16:58;;;;;;;43.95;18.13;;;;;;;-1.30;100.00;102005.13;6081667;19;20070;-75
2023/12/03 06:19:07;;;;;;;36.58;16.13;;;;;;;-1.26;100.00;102001.81;6081764;19;20003;-76
2023/12/03 06:21:12;;;;;;;40.85;15.70;;;;;;;-1.28;100.00;102010.34;6078291;19;20458;-74
2023/12/03 06:23:22;;;;;;;31.63;17.00;;;;;;;-1.22;100.00;102006.22;6082381;19;20086;-75
2023/12/03 06:25:30;;;;;;;33.45;14.13;;;;;;;-1.19;100.00;102008.00;6081653;19;20014;-73
2023/12/03 06:27:35;;;;;;;35.10;15.20;;;;;;;-1.24;100.00;102004.41;6076734;19;20010;-75
2023/12/03 06:29:40;;;;;;;33.25;14.35;;;;;;;-1.27;100.00;102004.34;6080096;19;20066;-75
2023/12/03 06:31:45;;;;;;;29.48;15.75;;;;;;;-1.31;100.00;101992.22;6075919;19;20554;-75
2023/12/03 06:33:49;;;;;;;35.40;18.25;;;;;;;-1.28;100.00;101995.75;6080991;19;20056;-75
2023/12/03 06:35:56;;;;;;;39.72;16.60;;;;;;;-1.26;100.00;101995.78;6077890;19;20047;-73
2023/12/03 06:38:18;;;;;;;33.15;15.38;;;;;;;-1.24;100.00;101988.94;6080984;19;20007;-76
2023/12/03 06:40:23;;;;;;;37.13;17.10;;;;;;;-1.27;100.00;101982.00;6084066;19;20030;-76
2023/12/03 06:42:25;;;;;;;31.30;17.02;;;;;;;-1.28;100.00;101984.56;6080727;19;20440;-74
2023/12/03 06:44:30;;;;;;;46.17;16.33;;;;;;;-1.31;100.00;101984.50;6081586;19;20015;-73
2023/12/03 06:46:47;;;;;;;41.47;15.23;;;;;;;-1.34;100.00;101985.28;6081506;19;20011;-75
2023/12/03 06:48:56;;;;;;;57.95;20.67;;;;;;;-1.34;100.00;101982.69;6077421;19;20003;-72
2023/12/03 06:51:08;;;;;;;46.58;18.63;;;;;;;-1.31;100.00;101984.50;6080285;19;20006;-72
2023/12/03 06:53:13;;;;;;;46.20;16.45;;;;;;;-1.37;100.00;101982.59;6073148;19;20019;-75
2023/12/03 06:55:18;;;;;;;32.53;19.00;;;;;;;-1.38;100.00;101986.00;6079554;19;20011;-75
2023/12/03 06:57:21;;;;;;;42.13;19.85;;;;;;;-1.39;100.00;101987.72;6077240;19;20044;-72
2023/12/03 06:59:26;;;;;;;34.53;16.27;;;;;;;-1.36;100.00;101990.38;6082965;19;20485;-74
2023/12/03 07:01:33;;;;;;;35.20;18.25;;;;;;;-1.40;100.00;101990.25;6079288;19;20517;-73
2023/12/03 07:03:42;;;;;;;24.90;15.80;;;;;;;-1.38;100.00;101986.88;6079651;19;20038;-73
2023/12/03 07:05:48;;;;;;;34.22;17.02;;;;;;;-1.35;100.00;101988.66;6077540;19;20256;-73
2023/12/03 07:07:59;;;;;;;40.67;18.30;;;;;;;-1.40;100.00;101993.69;6080399;19;20010;-73
2023/12/03 07:10:06;;;;;;;33.63;16.20;;;;;;;-1.38;100.00;101994.63;6081452;19;20430;-75
2023/12/03 07:12:13;;;;;;;33.38;16.00;;;;;;;-1.35;100.00;101996.41;6082010;19;20017;-73
2023/12/03 07:14:18;;;;;;;34.85;18.65;;;;;;;-1.38;100.00;101996.31;6082178;19;20090;-73
2023/12/03 07:16:23;;;;;;;34.35;16.35;;;;;;;-1.37;100.00;101998.97;6081397;19;20446;-73
2023/12/03 07:18:32;;;;;;;31.25;17.75;;;;;;;-1.35;100.00;101993.81;6083150;19;20015;-73
2023/12/03 07:20:37;;;;;;;44.55;19.52;;;;;;;-1.34;100.00;101998.16;6083621;19;20010;-73
2023/12/03 07:22:42;;;;;;;27.80;16.10;;;;;;;-1.31;100.00;102003.41;6081643;19;20103;-73
2023/12/03 07:24:55;;;;;;;44.03;19.50;;;;;;;-1.31;100.00;102002.53;6082580;19;20094;-73
2023/12/03 07:27:03;;;;;;;42.33;17.58;;;;;;;-1.32;100.00;102006.78;6083506;19;20035;-72
2023/12/03 07:29:05;;;;;;;32.20;14.57;;;;;;;-1.35;100.00;101999.84;6086452;19;20010;-72
2023/12/03 07:31:13;;;;;;;34.17;14.63;;;;;;;-1.33;100.00;102002.47;6086008;19;20013;-72
2023/12/03 07:33:18;;;;;;;33.38;17.95;;;;;;;-1.34;100.00;101996.47;6082985;19;20034;-71
2023/12/03 07:35:23;;;;;;;41.88;16.15;;;;;;;-1.38;100.00;102004.94;6088502;19;20011;-73
2023/12/03 07:37:32;;;;;;;45.08;16.90;;;;;;;-1.37;100.00;102009.28;6091264;19;20010;-73
2023/12/03 07:39:38;;;;;;;47.70;17.58;;;;;;;-1.36;100.00;102004.97;6090167;19;20011;-73
2023/12/03 07:41:49;;;;;;;44.42;17.10;;;;;;;-1.34;100.00;101999.03;6088925;19;20006;-74
2023/12/03 07:43:54;;;;;;;36.03;17.33;;;;;;;-1.31;100.00;102002.53;6084953;19;20010;-73
2023/12/03 07:45:59;;;;;;;38.08;13.38;;;;;;;-1.27;100.00;102009.50;6083617;19;20010;-73
2023/12/03 07:48:07;;;;;;;32.50;15.15;;;;;;;-1.26;100.00;102011.25;6084889;19;20003;-74
2023/12/03 07:50:16;;;;;;;30.70;16.00;;;;;;;-1.28;100.00;102013.78;6082829;19;20056;-74
2023/12/03 07:52:22;;;;;;;29.83;18.02;;;;;;;-1.24;100.00;102010.44;6081442;19;20043;-73
2023/12/03 07:54:28;;;;;;;31.95;13.48;;;;;;;-1.24;100.00;102018.19;6083885;19;20013;-74
2023/12/03 07:56:39;;;;;;;35.55;19.05;;;;;;;-1.24;100.00;102019.91;6080701;19;20002;-73
2023/12/03 07:58:52;;;;;;;39.63;17.83;;;;;;;-1.23;100.00;102024.25;6080069;19;21200;-74
2023/12/03 08:01:00;;;;;;;40.72;17.95;;;;;;;-1.22;100.00;102023.41;6080839;19;19998;-75
2023/12/03 08:03:08;;;;;;;38.92;18.25;;;;;;;-1.19;100.00;102021.75;6080383;19;20019;-77
2023/12/03 08:05:13;;;;;;;32.70;15.73;;;;;;;-1.16;100.00;102024.44;6083316;19;20022;-77
2023/12/03 08:07:19;;;;;;;46.55;19.77;;;;;;;-1.16;100.00;102026.13;6083479;19;20374;-73
2023/12/03 08:09:29;;;;;;;39.17;17.73;;;;;;;-1.18;100.00;102025.25;6084646;19;20010;-76
2023/12/03 08:11:37;;;;;;;37.53;16.27;;;;;;;-1.18;100.00;102030.41;6087270;19;20545;-74
2023/12/03 08:13:40;;;;;;;34.00;18.42;;;;;;;-1.14;100.00;102034.78;6083602;19;20077;-74
2023/12/03 08:15:47;;;;;;;25.15;15.48;;;;;;;-1.09;100.00;102029.75;6088337;19;20130;-74
2023/12/03 08:17:54;;;;;;;43.22;18.50;;;;;;;-1.12;100.00;102020.22;6087261;19;20011;-75
2023/12/03 08:20:02;;;;;;;40.97;16.05;;;;;;;-1.12;100.00;102025.41;6088369;19;20007;-74
2023/12/03 08:22:08;;;;;;;37.10;16.27;;;;;;;-1.08;100.00;102028.91;6083526;19;20094;-75
2023/12/03 08:24:12;;;;;;;31.48;17.38;;;;;;;-1.01;100.00;102023.97;6084012;19;20014;-75
2023/12/03 08:26:26;;;;;;;30.13;16.35;;;;;;;-1.04;100.00;102020.44;6087639;19;20042;-76
2023/12/03 08:28:34;;;;;;;33.10;14.70;;;;;;;-1.06;100.00;102022.97;6086075;19;20007;-76
2023/12/03 08:30:43;;;;;;;38.47;17.38;;;;;;;-1.02;100.00;102026.53;6085230;19;20365;-75
2023/12/03 08:32:58;;;;;;;43.65;18.77;;;;;;;-1.00;100.00;102025.72;6085654;19;20010;-73
2023/12/03 08:35:05;;;;;;;48.42;18.35;;;;;;;-0.98;100.00;102024.03;6082955;19;20038;-73
2023/12/03 08:37:10;;;;;;;25.25;15.27;;;;;;;-0.93;100.00;102021.59;6085749;19;20010;-75
2023/12/03 08:39:15;;;;;;;37.72;16.10;;;;;;;-0.92;100.00;102015.59;6088244;19;20026;-74
2023/12/03 08:41:23;;;;;;;30.77;18.25;;;;;;;-0.91;100.00;102027.66;6085138;19;20056;-74
2023/12/03 08:43:34;;;;;;;35.35;15.68;;;;;;;-0.87;100.00;102026.88;6083832;19;20042;-74
2023/12/03 08:45:40;;;;;;;38.67;15.18;;;;;;;-0.78;100.00;102023.69;6087200;19;20106;-74
2023/12/03 08:47:47;;;;;;;35.70;14.23;;;;;;;-0.80;100.00;102022.78;6087413;19;20006;-75
2023/12/03 08:49:56;;;;;;;41.70;19.00;;;;;;;-0.77;100.00;102018.53;6084702;19;20015;-76
2023/12/03 08:52:01;;;;;;;28.15;13.70;;;;;;;-0.67;100.00;102019.66;6079101;19;20447;-74
2023/12/03 08:54:11;;;;;;;43.47;18.90;;;;;;;-0.69;100.00;102006.69;6083507;19;20396;-74
2023/12/03 08:56:17;;;;;;;31.67;16.67;;;;;;;-0.65;100.00;102015.41;6087795;19;20074;-73
2023/12/03 08:58:22;;;;;;;36.03;12.55;;;;;;;-0.59;100.00;102014.69;6075635;19;20007;-74
2023/12/03 09:00:27;;;;;;;29.67;18.55;;;;;;;-0.59;100.00;102023.28;6084938;19;20053;-75
2023/12/03 09:02:32;;;;;;;36.15;15.10;;;;;;;-0.59;100.00;102014.69;6085450;19;20014;-75
2023/12/03 09:04:55;;;;;;;22.70;13.13;;;;;;;-0.52;100.00;102007.13;6085072;19;20010;-75
2023/12/03 09:07:08;;;;;;;33.25;14.80;;;;;;;-0.50;100.00;102013.19;6084120;19;20034;-75
2023/12/03 09:09:12;;;;;;;26.05;14.10;;;;;;;-0.47;100.00;102002.94;6086542;19;20007;-76
2023/12/03 09:11:17;;;;;;;28.23;14.18;;;;;;;-0.48;100.00;102001.19;6086408;19;20010;-75
2023/12/03 09:13:22;;;;;;;34.55;14.77;;;;;;;-0.45;100.00;102001.28;6084021;19;20363;-77
2023/12/03 09:15:27;;;;;;;26.75;13.73;;;;;;;-0.43;100.00;101990.09;6086659;19;20025;-74
2023/12/03 09:17:34;;;;;;;35.05;14.45;;;;;;;-0.42;100.00;101987.56;6086707;19;20002;-75
2023/12/03 09:19:44;;;;;;;31.38;14.00;;;;;;;-0.42;100.00;101994.41;6086672;19;20010;-74
2023/12/03 09:21:55;;;;;;;22.23;11.63;;;;;;;-0.34;100.00;101985.13;6085547;19;20439;-74
2023/12/03 09:24:00;;;;;;;28.77;12.65;;;;;;;-0.30;100.00;101992.13;6086831;19;20002;-73
2023/12/03 09:26:07;;;;;;;25.20;11.75;;;;;;;-0.31;100.00;101982.63;6087247;19;20023;-73
2023/12/03 09:28:13;;;;;;;26.30;13.68;;;;;;;-0.31;100.00;101983.50;6088465;19;20007;-74
2023/12/03 09:30:19;;;;;;;21.33;9.75;;;;;;;-0.32;100.00;101984.31;6083906;19;20010;-76